Time;durP1;ratioP1;P1;durP2;ratioP2;P2;SDS_P1;SDS_P2;PMS_P1;PMS_P2;Temp;Humidity;BMP_temperature;BMP_pressure;BME280_temperature;BME280_humidity;BME280_pressure;Samples;Min_cycle;Max_cycle;Signal;HPM_P1;HPM_P2
2023/08/26 00:00:38;;;;;;;11.18;6.70;;;;;;;17.35;100.00;93548.00;5069729;28;20037;-65
2023/08/26 00:03:05;;;;;;;10.93;6.78;;;;;;;17.34;100.00;93540.94;5069324;28;20036;-65
2023/08/26 00:05:32;;;;;;;53.85;38.00;;;;;;;17.35;100.00;93544.47;5069673;28;20438;-65
2023/08/26 00:08:01;;;;;;;14.35;9.07;;;;;;;17.24;100.00;93549.75;5069567;28;20406;-65
2023/08/26 00:10:27;;;;;;;9.60;6.30;;;;;;;17.23;100.00;93557.31;5068355;28;20879;-65
2023/08/26 00:12:54;;;;;;;8.55;5.72;;;;;;;17.31;100.00;93571.63;5068300;28;20567;-65
2023/08/26 00:15:22;;;;;;;10.15;6.18;;;;;;;17.27;100.00;93584.88;5051105;28;20115;-65
2023/08/26 00:17:49;;;;;;;9.45;6.50;;;;;;;17.17;100.00;93603.53;5069655;28;20036;-65
2023/08/26 00:20:16;;;;;;;10.20;7.25;;;;;;;17.05;100.00;93610.03;5067516;28;20128;-66
2023/08/26 00:22:43;;;;;;;12.17;7.03;;;;;;;17.11;100.00;93611.72;5069589;28;20033;-65
2023/08/26 00:25:10;;;;;;;9.68;7.18;;;;;;;17.20;100.00;93627.56;5068254;28;20033;-65
2023/08/26 00:27:36;;;;;;;11.60;7.30;;;;;;;17.14;100.00;93624.66;5041297;28;20037;-65
2023/08/26 00:30:04;;;;;;;10.57;7.50;;;;;;;17.21;100.00;93629.09;5065681;28;20052;-65
2023/08/26 00:32:31;;;;;;;11.55;7.15;;;;;;;17.33;100.00;93630.94;5068945;28;20390;-65
2023/08/26 00:34:58;;;;;;;11.83;7.47;;;;;;;17.40;100.00;93629.81;5068103;28;20044;-65
2023/08/26 00:37:26;;;;;;;9.55;6.80;;;;;;;17.49;100.00;93638.13;5056294;28;20122;-65
2023/08/26 00:39:53;;;;;;;12.23;7.00;;;;;;;17.46;100.00;93652.91;5049060;28;20391;-65
2023/08/26 00:42:19;;;;;;;10.70;6.80;;;;;;;17.49;100.00;93665.88;5055939;28;20044;-65
2023/08/26 00:44:46;;;;;;;10.75;6.90;;;;;;;17.58;100.00;93671.38;5049009;28;20041;-65
2023/08/26 00:47:13;;;;;;;11.70;6.83;;;;;;;17.55;100.00;93652.13;5046791;28;20039;-64
2023/08/26 00:49:40;;;;;;;12.07;7.50;;;;;;;17.33;100.00;93641.25;5048763;28;20044;-65
2023/08/26 00:52:07;;;;;;;14.00;8.75;;;;;;;16.64;100.00;93646.25;5048470;28;20067;-64
2023/08/26 00:54:35;;;;;;;14.52;8.07;;;;;;;16.77;100.00;93660.69;5048960;28;20039;-65
2023/08/26 00:57:07;;;;;;;22.95;14.07;;;;;;;17.09;100.00;93664.09;5047957;28;20486;-65
2023/08/26 00:59:33;;;;;;;14.43;8.80;;;;;;;17.23;100.00;93657.16;5041655;28;20041;-65
2023/08/26 01:02:01;;;;;;;10.68;7.40;;;;;;;17.22;100.00;93663.91;5042828;28;20033;-65
2023/08/26 01:04:28;;;;;;;11.75;7.25;;;;;;;17.10;100.00;93651.78;5067601;28;20067;-65
2023/08/26 01:06:55;;;;;;;11.13;7.30;;;;;;;17.02;100.00;93644.22;5061050;28;20080;-65
2023/08/26 01:09:22;;;;;;;10.43;6.93;;;;;;;17.15;100.00;93639.28;5045561;28;20053;-65
2023/08/26 01:12:05;;;;;;;13.47;7.80;;;;;;;17.01;100.00;93651.03;5028816;28;20067;-65
2023/08/26 01:14:40;;;;;;;13.30;7.40;;;;;;;17.11;100.00;93642.22;5061776;28;20693;-66
2023/08/26 01:17:07;;;;;;;11.55;7.03;;;;;;;17.19;100.00;93639.13;5068198;28;20045;-65
2023/08/26 01:19:43;;;;;;;10.40;7.18;;;;;;;17.30;100.00;93625.53;5068215;28;20053;-65
2023/08/26 01:22:10;;;;;;;11.05;7.07;;;;;;;17.30;100.00;93622.75;5068318;28;20116;-65
2023/08/26 01:24:41;;;;;;;11.50;6.87;;;;;;;17.31;100.00;93616.75;5063095;28;20043;-65
2023/08/26 01:27:08;;;;;;;10.38;7.57;;;;;;;17.16;100.00;93622.19;5067933;28;20047;-65
2023/08/26 01:29:35;;;;;;;13.52;8.20;;;;;;;16.86;100.00;93646.09;5068373;28;20087;-65
2023/08/26 01:32:15;;;;;;;13.05;7.90;;;;;;;16.71;100.00;93659.00;5067572;28;20519;-64
2023/08/26 01:34:46;;;;;;;11.10;7.50;;;;;;;16.84;100.00;93662.44;5068384;28;20051;-65
2023/08/26 01:37:14;;;;;;;9.83;7.40;;;;;;;17.06;100.00;93653.16;5037049;28;20044;-65
2023/08/26 01:39:41;;;;;;;12.70;7.97;;;;;;;16.75;100.00;93649.28;5047533;28;20053;-65
2023/08/26 01:42:12;;;;;;;13.10;8.40;;;;;;;16.66;100.00;93671.47;5041792;28;20054;-65
2023/08/26 01:44:40;;;;;;;13.05;8.10;;;;;;;16.94;100.00;93669.50;5036418;28;20072;-65
2023/08/26 01:47:07;;;;;;;13.23;8.05;;;;;;;16.84;100.00;93667.97;5045798;28;20041;-65
2023/08/26 01:49:34;;;;;;;12.37;7.73;;;;;;;16.96;100.00;93675.34;5047663;28;20044;-65
2023/08/26 01:52:01;;;;;;;9.55;6.75;;;;;;;17.09;100.00;93664.09;5047130;28;20045;-62
2023/08/26 01:54:28;;;;;;;12.20;7.53;;;;;;;17.24;100.00;93660.69;5046447;28;20098;-65
2023/08/26 01:56:54;;;;;;;10.82;6.95;;;;;;;17.34;100.00;93660.22;5047855;28;20256;-65
2023/08/26 01:59:21;;;;;;;10.95;6.65;;;;;;;17.49;100.00;93663.09;5047298;28;20052;-65
2023/08/26 02:01:48;;;;;;;10.30;6.93;;;;;;;17.51;100.00;93662.63;5047482;28;20474;-65
2023/08/26 02:04:15;;;;;;;10.00;6.88;;;;;;;17.51;100.00;93660.63;5045776;28;20056;-65
2023/08/26 02:06:42;;;;;;;10.95;6.50;;;;;;;17.52;100.00;93662.16;5047981;28;20045;-65
2023/08/26 02:09:08;;;;;;;9.95;6.35;;;;;;;17.59;100.00;93652.75;5049393;28;20049;-65
2023/08/26 02:11:35;;;;;;;10.75;6.60;;;;;;;17.60;100.00;93661.81;5047539;28;20490;-65
2023/08/26 02:14:02;;;;;;;9.93;5.53;;;;;;;17.50;100.00;93661.84;5057054;28;20485;-64
2023/08/26 02:16:28;;;;;;;9.10;5.38;;;;;;;17.66;100.00;93679.38;5067644;28;20063;-65
2023/08/26 02:18:55;;;;;;;8.32;4.70;;;;;;;17.68;100.00;93669.34;5070766;28;20417;-65
2023/08/26 02:21:22;;;;;;;5.90;4.00;;;;;;;17.56;100.00;93659.22;5071232;28;20097;-66
2023/08/26 02:23:49;;;;;;;8.85;4.25;;;;;;;17.61;100.00;93655.06;5063340;28;20040;-65
2023/08/26 02:26:16;;;;;;;10.23;6.00;;;;;;;17.55;100.00;93657.69;5071122;28;20052;-66
2023/08/26 02:28:42;;;;;;;8.05;4.90;;;;;;;17.54;100.00;93665.22;5070089;28;20063;-65
2023/08/26 02:31:09;;;;;;;11.52;5.47;;;;;;;17.55;100.00;93671.56;5070957;28;20045;-65
2023/08/26 02:33:36;;;;;;;8.98;5.43;;;;;;;17.50;100.00;93672.94;5071246;28;20335;-66
2023/08/26 02:36:03;;;;;;;7.30;4.90;;;;;;;17.51;100.00;93668.94;5069610;28;20044;-64
2023/08/26 02:38:31;;;;;;;8.37;4.97;;;;;;;17.47;100.00;93668.34;5070985;28;20055;-66
2023/08/26 02:40:58;;;;;;;6.97;5.07;;;;;;;17.64;100.00;93667.97;5071373;28;20032;-65
2023/08/26 02:43:25;;;;;;;7.88;4.93;;;;;;;17.53;100.00;93668.47;5070930;28;20040;-65
2023/08/26 02:45:53;;;;;;;7.78;5.50;;;;;;;17.60;100.00;93670.16;5071263;28;20040;-65
2023/08/26 02:48:20;;;;;;;10.40;5.40;;;;;;;17.56;100.00;93670.31;5057511;28;20506;-65
2023/08/26 02:50:47;;;;;;;7.97;5.80;;;;;;;17.30;100.00;93667.13;5057896;28;20134;-65
2023/08/26 02:53:15;;;;;;;10.05;6.20;;;;;;;17.20;100.00;93680.25;5070641;28;20058;-65
2023/08/26 02:55:42;;;;;;;11.93;6.28;;;;;;;17.38;100.00;93671.13;5057802;28;20071;-65
2023/08/26 02:58:09;;;;;;;8.25;5.47;;;;;;;17.51;100.00;93682.06;5070239;28;20040;-65
2023/08/26 03:00:36;;;;;;;9.70;5.68;;;;;;;17.51;100.00;93685.59;5052953;28;20139;-65
2023/08/26 03:03:03;;;;;;;9.97;5.40;;;;;;;17.47;100.00;93687.75;5050581;28;20486;-65
2023/08/26 03:05:30;;;;;;;8.85;5.63;;;;;;;17.46;100.00;93688.97;5051111;28;20041;-65
2023/08/26 03:07:56;;;;;;;8.48;5.65;;;;;;;17.37;100.00;93689.78;5050905;28;20379;-65
2023/08/26 03:10:23;;;;;;;8.48;5.18;;;;;;;17.45;100.00;93687.47;5057254;28;20049;-65
2023/08/26 03:12:50;;;;;;;29.45;19.35;;;;;;;17.51;100.00;93682.81;5061532;28;20049;-65
2023/08/26 03:15:17;;;;;;;10.50;6.77;;;;;;;17.49;100.00;93681.75;5069697;28;20037;-65
2023/08/26 03:17:44;;;;;;;8.13;5.75;;;;;;;17.48;100.00;93680.97;5070744;28;20122;-65
2023/08/26 03:20:11;;;;;;;8.65;5.22;;;;;;;17.45;100.00;93695.78;5060707;28;20405;-65
2023/08/26 03:22:38;;;;;;;7.80;4.82;;;;;;;17.48;100.00;93694.06;5065103;28;20481;-65
2023/08/26 03:25:05;;;;;;;7.85;5.05;;;;;;;17.50;100.00;93692.34;5068571;28;20032;-64
2023/08/26 03:27:33;;;;;;;8.33;5.10;;;;;;;17.44;100.00;93697.00;5070576;28;20495;-65
2023/08/26 03:30:00;;;;;;;8.55;5.15;;;;;;;17.37;100.00;93700.88;5067721;28;20041;-65
2023/08/26 03:32:26;;;;;;;9.80;5.50;;;;;;;17.19;100.00;93700.13;5061095;28;20154;-65
2023/08/26 03:34:53;;;;;;;8.30;5.30;;;;;;;17.25;100.00;93698.28;5070603;28;20149;-65
2023/08/26 03:37:20;;;;;;;7.05;5.35;;;;;;;17.34;100.00;93695.47;5069722;28;20051;-65
2023/08/26 03:39:46;;;;;;;9.97;5.60;;;;;;;17.32;100.00;93707.03;5070229;28;20045;-65
2023/08/26 03:42:13;;;;;;;9.25;5.25;;;;;;;17.39;100.00;93697.63;5068415;28;20047;-65
2023/08/26 03:44:40;;;;;;;9.25;5.28;;;;;;;17.43;100.00;93689.16;5070479;28;20037;-65
2023/08/26 03:47:07;;;;;;;9.85;5.45;;;;;;;17.30;100.00;93695.63;5069611;28;20041;-64
2023/08/26 03:49:33;;;;;;;8.50;5.50;;;;;;;17.19;100.00;93698.13;5070071;28;20045;-65
2023/08/26 03:52:00;;;;;;;9.07;5.57;;;;;;;17.13;100.00;93700.00;5070007;28;20046;-65
2023/08/26 03:54:27;;;;;;;8.45;5.45;;;;;;;17.10;100.00;93698.91;5049126;28;20584;-65
2023/08/26 03:56:53;;;;;;;9.73;5.45;;;;;;;17.11;100.00;93700.44;5049858;28;20055;-65
2023/08/26 03:59:20;;;;;;;9.40;5.60;;;;;;;17.12;100.00;93692.88;5049475;28;20093;-65
2023/08/26 04:01:47;;;;;;;10.15;6.20;;;;;;;17.08;100.00;93706.13;5048710;28;20041;-65
2023/08/26 04:04:15;;;;;;;11.10;5.90;;;;;;;17.06;100.00;93705.84;5055626;28;20465;-65
2023/08/26 04:06:42;;;;;;;11.50;6.28;;;;;;;17.08;100.00;93708.91;5069858;28;20163;-65
2023/08/26 04:09:09;;;;;;;9.80;5.93;;;;;;;17.14;100.00;93713.41;5068012;28;20509;-65
2023/08/26 04:11:35;;;;;;;10.05;5.70;;;;;;;17.22;100.00;93711.06;5068196;28;20051;-65
2023/08/26 04:14:02;;;;;;;9.68;5.75;;;;;;;17.27;100.00;93701.38;5069316;28;20045;-64
2023/08/26 04:16:29;;;;;;;9.50;5.70;;;;;;;17.23;100.00;93695.97;5069856;28;20500;-65
2023/08/26 04:18:55;;;;;;;10.90;5.60;;;;;;;17.27;100.00;93696.56;5067727;28;20142;-65
2023/08/26 04:21:22;;;;;;;9.95;6.00;;;;;;;17.18;100.00;93688.25;5069069;28;20039;-65
2023/08/26 04:23:49;;;;;;;9.90;5.75;;;;;;;17.11;100.00;93696.91;5069331;28;20167;-65
2023/08/26 04:26:15;;;;;;;8.25;5.63;;;;;;;17.09;100.00;93702.16;5068801;28;20048;-65
2023/08/26 04:28:42;;;;;;;9.50;5.90;;;;;;;17.03;100.00;93704.75;5067937;28;20431;-65
2023/08/26 04:31:10;;;;;;;8.90;5.97;;;;;;;17.06;100.00;93706.59;5068409;28;20102;-65
2023/08/26 04:33:37;;;;;;;8.05;5.80;;;;;;;17.12;100.00;93710.31;5069145;28;20439;-65
2023/08/26 04:36:04;;;;;;;13.75;6.45;;;;;;;17.14;100.00;93707.06;5068382;28;20040;-64
2023/08/26 04:38:31;;;;;;;8.55;5.60;;;;;;;17.14;100.00;93705.06;5068884;28;20041;-65
2023/08/26 04:40:58;;;;;;;10.00;6.00;;;;;;;17.24;100.00;93707.81;5068393;28;20388;-65
2023/08/26 04:43:28;;;;;;;9.27;6.10;;;;;;;17.28;100.00;93711.22;5068630;28;20051;-65
2023/08/26 04:45:55;;;;;;;9.10;6.30;;;;;;;17.34;100.00;93706.56;5068563;28;20037;-65
2023/08/26 04:48:22;;;;;;;11.45;6.20;;;;;;;17.37;100.00;93711.22;5068342;28;20204;-65
2023/08/26 04:50:48;;;;;;;10.07;5.97;;;;;;;17.33;100.00;93705.06;5068448;28;20041;-65
2023/08/26 04:53:16;;;;;;;8.17;5.80;;;;;;;17.36;100.00;93712.44;5068209;28;20059;-65
2023/08/26 04:55:42;;;;;;;8.90;5.68;;;;;;;17.36;100.00;93712.44;5068746;28;20063;-65
2023/08/26 04:58:09;;;;;;;9.73;6.00;;;;;;;17.37;100.00;93719.53;5066766;28;20135;-65
2023/08/26 05:00:40;;;;;;;8.55;5.90;;;;;;;17.25;100.00;93726.00;5067981;28;20136;-65
2023/08/26 05:03:08;;;;;;;8.60;5.47;;;;;;;17.35;100.00;93722.00;5067940;28;20045;-65
2023/08/26 05:05:35;;;;;;;10.23;5.80;;;;;;;17.35;100.00;93727.53;5068501;28;20040;-65
2023/08/26 05:08:02;;;;;;;8.90;5.90;;;;;;;17.36;100.00;93727.09;5067847;28;20040;-64
2023/08/26 05:10:28;;;;;;;10.65;6.15;;;;;;;17.43;100.00;93720.44;5068448;28;20050;-65
2023/08/26 05:12:55;;;;;;;13.90;6.13;;;;;;;17.42;100.00;93729.97;5045732;28;20247;-65
2023/08/26 05:15:22;;;;;;;11.25;6.55;;;;;;;17.17;100.00;93731.09;5067724;28;20047;-65
2023/08/26 05:17:49;;;;;;;9.43;6.77;;;;;;;17.10;100.00;93728.63;5068351;28;20109;-65
2023/08/26 05:20:16;;;;;;;10.40;6.78;;;;;;;17.02;100.00;93727.41;5067797;28;20060;-65
2023/08/26 05:22:42;;;;;;;9.40;6.35;;;;;;;17.16;100.00;93732.31;5065559;28;20162;-65
2023/08/26 05:25:09;;;;;;;15.02;7.50;;;;;;;17.16;100.00;93726.78;5059708;28;20420;-65
2023/08/26 05:27:36;;;;;;;12.35;6.93;;;;;;;17.31;100.00;93736.00;5068099;28;20172;-65
2023/08/26 05:30:03;;;;;;;10.90;6.70;;;;;;;17.25;100.00;93742.66;5068247;28;20128;-64
2023/08/26 05:32:30;;;;;;;12.15;7.13;;;;;;;17.17;100.00;93737.41;5068263;28;20044;-65
2023/08/26 05:34:57;;;;;;;12.07;6.95;;;;;;;17.14;100.00;93740.31;5068683;28;20032;-65
2023/08/26 05:37:24;;;;;;;12.80;6.70;;;;;;;17.27;100.00;93737.41;5055274;28;20041;-65
2023/08/26 05:39:50;;;;;;;12.18;6.97;;;;;;;17.41;100.00;93736.78;5054409;28;20041;-65
2023/08/26 05:42:17;;;;;;;10.43;6.70;;;;;;;17.41;100.00;93738.78;5067882;28;20063;-65
2023/08/26 05:44:44;;;;;;;9.82;6.70;;;;;;;17.40;100.00;93724.13;5068167;28;20412;-65
2023/08/26 05:47:11;;;;;;;11.27;7.05;;;;;;;17.50;100.00;93727.66;5067247;28;20036;-65
2023/08/26 05:49:37;;;;;;;11.15;7.20;;;;;;;17.72;100.00;93724.69;5064292;28;20029;-65
2023/08/26 05:52:04;;;;;;;14.75;6.40;;;;;;;17.99;100.00;93717.53;5047419;28;20088;-64
2023/08/26 05:54:31;;;;;;;10.13;6.33;;;;;;;18.20;100.00;93721.31;5065297;28;20110;-65
2023/08/26 05:56:58;;;;;;;8.63;6.35;;;;;;;18.40;100.00;93713.19;5066985;28;20085;-65
2023/08/26 05:59:24;;;;;;;9.38;6.00;;;;;;;18.63;100.00;93713.66;5066224;28;20044;-65
2023/08/26 06:01:51;;;;;;;7.97;5.72;;;;;;;18.49;100.00;93702.03;5067569;28;20044;-65
2023/08/26 06:04:18;;;;;;;11.05;5.88;;;;;;;18.56;100.00;93712.03;5066296;28;20040;-65
2023/08/26 06:06:44;;;;;;;8.57;5.97;;;;;;;18.68;100.00;93716.56;5067929;28;20067;-65
2023/08/26 06:09:13;;;;;;;8.82;5.60;;;;;;;18.84;100.00;93712.63;5067318;28;20036;-65
2023/08/26 06:11:40;;;;;;;10.57;5.80;;;;;;;18.76;100.00;93711.44;5067790;28;20043;-65
2023/08/26 06:14:07;;;;;;;9.93;5.53;;;;;;;19.03;100.00;93704.91;5067384;28;20159;-65
2023/08/26 06:16:34;;;;;;;10.75;5.93;;;;;;;19.39;100.00;93700.28;5049808;28;20067;-65
2023/08/26 06:19:00;;;;;;;8.70;5.70;;;;;;;19.76;100.00;93697.16;5047510;28;20041;-65
2023/08/26 06:21:27;;;;;;;10.52;6.05;;;;;;;19.95;100.00;93704.03;5053741;28;20701;-65
2023/08/26 06:23:54;;;;;;;7.85;5.95;;;;;;;20.30;100.00;93700.53;5050715;28;20217;-66
2023/08/26 06:26:21;;;;;;;9.38;6.05;;;;;;;20.52;100.00;93696.50;5053342;28;20051;-65
2023/08/26 06:28:47;;;;;;;8.80;5.78;;;;;;;20.86;100.00;93700.53;5066065;28;20313;-66
2023/08/26 06:31:14;;;;;;;9.83;5.90;;;;;;;20.55;100.00;93701.91;5060707;28;20428;-66
2023/08/26 06:33:41;;;;;;;9.02;6.60;;;;;;;19.27;100.00;93701.31;5058967;28;20036;-66
2023/08/26 06:36:08;;;;;;;10.55;6.47;;;;;;;19.29;100.00;93707.94;5065374;28;20213;-65
2023/08/26 06:38:35;;;;;;;10.02;6.75;;;;;;;19.39;100.00;93702.28;5067691;28;20082;-65
2023/08/26 06:41:02;;;;;;;10.38;6.65;;;;;;;18.84;100.00;93700.75;5067170;28;20041;-64
2023/08/26 06:43:28;;;;;;;10.93;7.33;;;;;;;18.26;100.00;93700.75;5067901;28;20045;-65
2023/08/26 06:45:56;;;;;;;12.10;6.25;;;;;;;19.02;100.00;93694.28;5067615;28;20047;-66
2023/08/26 06:48:23;;;;;;;9.75;5.75;;;;;;;19.23;100.00;93695.16;5067172;28;20089;-65
2023/08/26 06:50:50;;;;;;;8.10;5.75;;;;;;;19.08;100.00;93697.94;5067509;28;20047;-65
2023/08/26 06:53:21;;;;;;;10.13;5.40;;;;;;;19.39;100.00;93703.06;5066887;28;20048;-66
2023/08/26 06:55:49;;;;;;;9.00;5.50;;;;;;;19.45;100.00;93697.59;5067498;28;20044;-66
2023/08/26 06:58:16;;;;;;;9.35;4.85;;;;;;;19.39;100.00;93708.63;5067044;28;20051;-65
2023/08/26 07:00:44;;;;;;;9.93;4.70;;;;;;;18.80;100.00;93700.16;5067269;28;20044;-66
2023/08/26 07:03:11;;;;;;;8.60;4.40;;;;;;;18.75;100.00;93696.75;5066114;28;20040;-65
2023/08/26 07:05:41;;;;;;;8.55;4.20;;;;;;;19.23;100.00;93692.38;5070966;28;20044;-66
2023/08/26 07:08:08;;;;;;;9.33;4.13;;;;;;;20.54;100.00;93685.66;5070339;28;20040;-66
2023/08/26 07:10:35;;;;;;;8.60;3.88;;;;;;;20.82;100.00;93688.81;5070931;28;20052;-67
2023/08/26 07:13:02;;;;;;;7.07;3.88;;;;;;;20.48;100.00;93690.38;5063243;28;20033;-65
2023/08/26 07:15:28;;;;;;;9.13;3.90;;;;;;;19.91;100.00;93680.44;5051535;28;20044;-65
2023/08/26 07:17:55;;;;;;;9.55;3.80;;;;;;;19.32;100.00;93692.31;5070778;28;20036;-65
2023/08/26 07:20:24;;;;;;;9.90;4.30;;;;;;;18.44;100.00;93704.69;5070026;28;20481;-65
2023/08/26 07:22:51;;;;;;;8.20;4.03;;;;;;;18.64;100.00;93695.75;5070668;28;20122;-66
2023/08/26 07:25:18;;;;;;;10.05;4.60;;;;;;;18.70;100.00;93705.75;5056960;28;20055;-66
2023/08/26 07:27:45;;;;;;;10.05;4.85;;;;;;;18.95;100.00;93707.31;5050503;28;20587;-65
2023/08/26 07:30:13;;;;;;;11.13;4.20;;;;;;;19.20;100.00;93705.25;5050180;28;20053;-66
2023/08/26 07:32:41;;;;;;;8.83;4.00;;;;;;;19.04;100.00;93700.13;5050516;28;20047;-66
2023/08/26 07:35:09;;;;;;;7.85;4.20;;;;;;;18.99;100.00;93704.31;5050153;28;20436;-66
2023/08/26 07:37:37;;;;;;;9.95;4.30;;;;;;;18.49;100.00;93695.69;5063807;28;20439;-67
2023/08/26 07:40:07;;;;;;;8.02;3.90;;;;;;;18.76;100.00;93692.72;5037350;28;20553;-66
2023/08/26 07:42:35;;;;;;;9.30;4.35;;;;;;;19.10;100.00;93689.88;5056256;28;20041;-66
2023/08/26 07:45:02;;;;;;;7.13;4.00;;;;;;;18.69;100.00;93686.75;5049953;28;20044;-65
2023/08/26 07:47:29;;;;;;;9.40;4.10;;;;;;;18.17;100.00;93692.47;5050171;28;20037;-66
2023/08/26 07:49:59;;;;;;;9.43;4.40;;;;;;;18.06;100.00;93700.53;5044796;28;20064;-66
2023/08/26 07:52:25;;;;;;;8.98;3.72;;;;;;;18.74;100.00;93700.78;5041630;28;20045;-66
2023/08/26 07:54:55;;;;;;;7.90;4.18;;;;;;;19.17;100.00;93695.06;5068929;28;20045;-66
2023/08/26 07:57:22;;;;;;;8.33;3.77;;;;;;;19.35;100.00;93700.47;5051798;28;20040;-66
2023/08/26 07:59:49;;;;;;;8.93;3.42;;;;;;;19.61;100.00;93688.00;5069760;28;20037;-66
2023/08/26 08:02:17;;;;;;;7.28;3.80;;;;;;;20.09;100.00;93685.00;5068027;28;20468;-66
2023/08/26 08:04:44;;;;;;;11.10;3.67;;;;;;;20.26;100.00;93699.19;5068431;28;20044;-67
2023/08/26 08:07:11;;;;;;;6.97;4.30;;;;;;;19.62;100.00;93695.09;5069322;28;20036;-66
2023/08/26 08:09:38;;;;;;;7.43;4.20;;;;;;;19.32;100.00;93709.00;5069581;28;20178;-66
2023/08/26 08:12:05;;;;;;;7.60;3.80;;;;;;;19.35;100.00;93708.81;5069542;28;20044;-66
2023/08/26 08:14:32;;;;;;;7.30;4.00;;;;;;;19.87;100.00;93702.13;5069439;28;20048;-66
2023/08/26 08:16:59;;;;;;;8.68;3.70;;;;;;;20.14;100.00;93712.19;5066925;28;20048;-66
2023/08/26 08:19:25;;;;;;;7.80;3.65;;;;;;;20.52;100.00;93716.03;5068689;28;20082;-66
2023/08/26 08:21:52;;;;;;;8.77;3.97;;;;;;;20.75;100.00;93715.13;5068709;28;20070;-66
2023/08/26 08:24:19;;;;;;;7.97;3.97;;;;;;;20.54;100.00;93705.94;5032122;28;20053;-66
2023/08/26 08:26:46;;;;;;;8.43;3.80;;;;;;;20.81;100.00;93706.06;5036851;28;20041;-66
2023/08/26 08:29:12;;;;;;;7.18;3.90;;;;;;;19.93;100.00;93706.53;5049135;28;20043;-66
2023/08/26 08:31:39;;;;;;;8.95;3.92;;;;;;;20.01;100.00;93701.34;5057400;28;20041;-66
2023/08/26 08:34:07;;;;;;;8.13;3.67;;;;;;;21.01;100.00;93700.50;5047866;28;20454;-65
2023/08/26 08:36:34;;;;;;;9.68;3.83;;;;;;;22.54;100.00;93683.09;5047595;28;20375;-66
2023/08/26 08:39:01;;;;;;;9.10;3.15;;;;;;;23.16;100.00;93677.03;5049010;28;20048;-63
2023/08/26 08:41:29;;;;;;;10.20;3.60;;;;;;;22.90;100.00;93675.91;5048915;28;20041;-66
2023/08/26 08:44:03;;;;;;;8.15;3.45;;;;;;;22.47;100.00;93680.75;5049306;28;20053;-66
2023/08/26 08:46:29;;;;;;;8.77;3.53;;;;;;;24.01;100.00;93680.78;5067961;28;20259;-66
2023/08/26 08:48:57;;;;;;;6.32;3.50;;;;;;;23.64;100.00;93679.72;5069034;28;20059;-66
2023/08/26 08:51:25;;;;;;;8.68;3.50;;;;;;;22.41;100.00;93683.53;5068320;28;20055;-66
2023/08/26 08:53:52;;;;;;;8.13;3.90;;;;;;;22.94;100.00;93684.81;5068760;28;20044;-66
2023/08/26 08:56:19;;;;;;;9.00;4.15;;;;;;;23.35;100.00;93686.53;5067151;28;20048;-66
2023/08/26 08:58:47;;;;;;;10.60;4.10;;;;;;;21.20;100.00;93684.19;5067505;28;20043;-66
2023/08/26 09:01:17;;;;;;;6.82;4.00;;;;;;;21.35;100.00;93678.53;5066791;28;20061;-66
2023/08/26 09:03:45;;;;;;;6.78;3.60;;;;;;;23.49;100.00;93679.19;5068605;28;20052;-66
2023/08/26 09:06:13;;;;;;;6.63;3.47;;;;;;;23.18;100.00;93682.91;5068086;28;20085;-66
2023/08/26 09:08:42;;;;;;;9.68;4.10;;;;;;;21.87;100.00;93689.72;5068335;28;20044;-66
2023/08/26 09:11:09;;;;;;;7.47;3.57;;;;;;;20.94;100.00;93689.75;5067919;28;20051;-66
2023/08/26 09:13:36;;;;;;;10.00;3.95;;;;;;;20.66;100.00;93684.56;5068644;28;20324;-65
2023/08/26 09:16:04;;;;;;;8.32;4.10;;;;;;;20.99;100.00;93677.88;5067852;28;20041;-65
2023/08/26 09:18:30;;;;;;;8.13;3.97;;;;;;;22.08;100.00;93673.63;5053439;28;20037;-66
2023/08/26 09:20:57;;;;;;;7.50;3.63;;;;;;;23.59;100.00;93660.09;5048233;28;20045;-66
2023/08/26 09:23:24;;;;;;;6.30;3.50;;;;;;;24.24;100.00;93662.66;5047756;28;20049;-66
2023/08/26 09:25:53;;;;;;;7.75;3.55;;;;;;;24.19;100.00;93643.06;5048373;28;20060;-66
2023/08/26 09:28:20;;;;;;;8.65;4.50;;;;;;;24.45;100.00;93654.75;5047076;28;20405;-66
2023/08/26 09:31:04;;;;;;;7.70;4.10;;;;;;;24.54;100.00;93650.94;5047102;28;20433;-66
2023/08/26 09:33:31;;;;;;;8.95;3.78;;;;;;;24.46;100.00;93655.50;5037589;28;20383;-66
2023/08/26 09:35:58;;;;;;;9.73;3.90;;;;;;;23.45;100.00;93650.66;5048125;28;20484;-66
2023/08/26 09:38:39;;;;;;;8.63;3.92;;;;;;;23.38;100.00;93656.75;5047090;28;20257;-66
2023/08/26 09:41:05;;;;;;;8.25;4.40;;;;;;;22.38;100.00;93641.84;5047514;28;20409;-65
2023/08/26 09:43:33;;;;;;;8.45;4.13;;;;;;;21.92;100.00;93629.56;5046566;28;20041;-66
2023/08/26 09:45:59;;;;;;;6.88;3.78;;;;;;;23.00;100.00;93626.09;5034743;28;20029;-66
2023/08/26 09:48:26;;;;;;;11.70;4.23;;;;;;;23.06;100.00;93624.09;5047335;28;20396;-66
2023/08/26 09:50:53;;;;;;;7.65;3.85;;;;;;;23.43;100.00;93625.94;5067960;28;20047;-66
2023/08/26 09:53:33;;;;;;;7.82;4.20;;;;;;;22.90;100.00;93631.13;5067337;28;20044;-66
2023/08/26 09:56:02;;;;;;;6.95;3.70;;;;;;;23.15;100.00;93631.50;5067834;28;20033;-66
2023/08/26 09:58:28;;;;;;;9.32;4.00;;;;;;;23.39;100.00;93627.47;5048428;28;20590;-65
2023/08/26 10:00:56;;;;;;;7.27;4.00;;;;;;;22.59;100.00;93645.25;5062863;28;20394;-65
2023/08/26 10:03:24;;;;;;;10.80;4.25;;;;;;;23.05;100.00;93661.75;5067295;28;20043;-65
2023/08/26 10:05:56;;;;;;;8.18;3.80;;;;;;;23.10;100.00;93655.41;5067926;28;20067;-66
2023/08/26 10:08:29;;;;;;;8.10;3.90;;;;;;;22.86;100.00;93658.59;5067519;28;20043;-66
2023/08/26 10:11:02;;;;;;;10.18;4.10;;;;;;;22.90;100.00;93658.38;5065969;28;20041;-65
2023/08/26 10:13:33;;;;;;;7.27;3.90;;;;;;;23.06;100.00;93665.28;5066805;28;20223;-66
2023/08/26 10:16:03;;;;;;;8.07;3.70;;;;;;;22.88;100.00;93674.88;5067333;28;20037;-66
2023/08/26 10:18:41;;;;;;;8.30;4.07;;;;;;;22.57;100.00;93684.88;5066548;28;20371;-65
2023/08/26 10:21:09;;;;;;;8.63;4.05;;;;;;;22.43;100.00;93669.03;5066627;28;20509;-65
2023/08/26 10:23:37;;;;;;;7.40;4.00;;;;;;;22.40;100.00;93672.84;5067453;28;20354;-66
2023/08/26 10:26:04;;;;;;;8.07;4.13;;;;;;;22.62;100.00;93672.97;5067157;28;20045;-65
2023/08/26 10:28:33;;;;;;;8.20;4.00;;;;;;;22.66;100.00;93661.56;5067166;28;20045;-66
2023/08/26 10:31:00;;;;;;;9.35;4.40;;;;;;;22.26;100.00;93668.94;5066775;28;20052;-66
2023/08/26 10:33:27;;;;;;;9.40;4.30;;;;;;;22.67;100.00;93675.03;5056138;28;20128;-65
2023/08/26 10:36:12;;;;;;;7.82;4.30;;;;;;;22.75;100.00;93669.72;5064997;28;20047;-66
2023/08/26 10:38:39;;;;;;;9.70;4.30;;;;;;;22.86;100.00;93666.22;5067130;28;20479;-66
2023/08/26 10:41:08;;;;;;;9.25;4.38;;;;;;;22.91;100.00;93671.06;5070819;28;20056;-65
2023/08/26 10:43:36;;;;;;;9.25;4.22;;;;;;;22.51;100.00;93664.50;5070853;28;20097;-65
2023/08/26 10:46:03;;;;;;;7.53;4.10;;;;;;;22.29;100.00;93671.50;5070373;28;20397;-65
2023/08/26 10:48:56;;;;;;;9.02;4.00;;;;;;;22.05;100.00;93682.22;5068749;28;20113;-66
2023/08/26 10:51:23;;;;;;;9.30;4.30;;;;;;;21.86;100.00;93682.59;5070213;28;20045;-66
2023/08/26 10:53:50;;;;;;;8.30;4.20;;;;;;;21.60;100.00;93670.69;5070710;28;20066;-66
2023/08/26 10:56:21;;;;;;;7.65;4.20;;;;;;;21.31;100.00;93672.41;5070338;28;20408;-66
2023/08/26 10:58:48;;;;;;;11.43;4.93;;;;;;;20.91;100.00;93660.03;5070819;28;20474;-66
2023/08/26 11:01:17;;;;;;;9.20;4.85;;;;;;;20.88;100.00;93661.00;5069101;28;20497;-65
2023/08/26 11:03:48;;;;;;;8.50;4.80;;;;;;;20.71;100.00;93667.16;5070564;28;20088;-66
2023/08/26 11:06:21;;;;;;;8.73;5.05;;;;;;;20.72;100.00;93682.63;5070602;28;20037;-65
2023/08/26 11:08:53;;;;;;;9.60;4.88;;;;;;;20.66;100.00;93714.47;5070504;28;20139;-65
2023/08/26 11:11:20;;;;;;;10.95;5.07;;;;;;;20.18;100.00;93700.84;5069189;28;20044;-65
2023/08/26 11:13:47;;;;;;;10.65;5.53;;;;;;;20.26;100.00;93711.13;5069683;28;20132;-65
2023/08/26 11:16:15;;;;;;;10.77;4.83;;;;;;;20.06;100.00;93706.25;5070325;28;20043;-65
2023/08/26 11:18:44;;;;;;;10.15;5.10;;;;;;;19.86;100.00;93704.16;5070411;28;20055;-65
2023/08/26 11:21:12;;;;;;;8.93;4.97;;;;;;;19.83;100.00;93699.53;5070065;28;20043;-65
2023/08/26 11:23:39;;;;;;;8.10;5.35;;;;;;;19.94;100.00;93699.75;5070678;28;20048;-66